Time;durP1;ratioP1;P1;durP2;ratioP2;P2;SDS_P1;SDS_P2;PMS_P1;PMS_P2;Temp;Humidity;BMP_temperature;BMP_pressure;BME280_temperature;BME280_humidity;BME280_pressure;Samples;Min_cycle;Max_cycle;Signal;HPM_P1;HPM_P2
2021/12/03 00:01:39;;;;;;;14.82;10.10;;;2.20;81.00;;;0.37;89.39;95174.06;4971492;28;20053;-67
2021/12/03 00:04:05;;;;;;;15.85;10.13;;;2.20;80.80;;;0.32;88.88;95182.28;4946452;28;20034;-67
2021/12/03 00:06:35;;;;;;;15.57;10.25;;;2.10;81.10;;;0.27;88.62;95185.31;4988097;28;20038;-67
2021/12/03 00:09:01;;;;;;;14.70;10.50;;;2.10;80.90;;;0.26;89.43;95185.47;4989687;28;20034;-66
2021/12/03 00:11:27;;;;;;;14.77;9.50;;;2.10;81.20;;;0.24;89.14;95189.97;4972901;28;20501;-65
2021/12/03 00:13:53;;;;;;;14.52;10.30;;;2.10;80.80;;;0.20;89.03;95188.63;4978910;28;20117;-67
2021/12/03 00:16:18;;;;;;;15.40;9.88;;;2.10;80.90;;;0.16;89.43;95195.88;4977879;28;20122;-67
2021/12/03 00:18:44;;;;;;;15.82;10.73;;;2.10;80.90;;;0.10;89.14;95203.41;4973731;28;20034;-66
2021/12/03 00:21:11;;;;;;;17.92;10.45;;;2.00;81.10;;;0.08;89.14;95208.72;4971019;28;20805;-67
2021/12/03 00:23:37;;;;;;;17.00;10.38;;;2.00;80.90;;;0.03;89.07;95208.34;4973370;28;20125;-67
2021/12/03 00:26:04;;;;;;;15.70;9.95;;;1.80;81.20;;;-0.02;89.03;95224.28;4987927;28;20394;-67
2021/12/03 00:28:30;;;;;;;16.42;10.55;;;1.80;81.30;;;-0.03;89.45;95225.25;4979437;28;20137;-66
2021/12/03 00:30:56;;;;;;;16.80;10.15;;;1.80;81.60;;;-0.06;89.15;95230.69;4984292;28;20043;-66
2021/12/03 00:33:22;;;;;;;16.20;10.50;;;1.80;81.30;;;-0.08;89.41;95237.78;4975430;28;20121;-67
2021/12/03 00:35:48;;;;;;;18.80;10.75;;;1.70;81.80;;;-0.08;89.46;95255.06;4962392;28;20426;-67
2021/12/03 00:38:15;;;;;;;14.77;10.23;;;1.80;82.10;;;-0.07;89.94;95260.09;4969369;28;20034;-67
2021/12/03 00:40:41;;;;;;;15.93;9.73;;;1.80;82.20;;;-0.06;89.96;95258.31;4985153;28;20506;-67
2021/12/03 00:43:07;;;;;;;16.48;11.35;;;1.80;82.20;;;-0.05;90.20;95271.09;4970073;28;20074;-67
2021/12/03 00:45:33;;;;;;;19.45;11.60;;;1.90;81.90;;;-0.05;89.58;95276.28;4978678;28;20034;-67
2021/12/03 00:47:59;;;;;;;18.73;11.48;;;1.80;81.60;;;-0.06;89.46;95282.41;4972273;28;20114;-66
2021/12/03 00:50:26;;;;;;;19.85;12.65;;;1.80;81.60;;;-0.10;89.42;95294.00;4947803;28;20537;-67
2021/12/03 00:52:51;;;;;;;21.02;12.18;;;1.70;81.80;;;-0.11;89.80;95300.13;4985349;28;20539;-67
2021/12/03 00:55:17;;;;;;;20.30;12.73;;;1.70;81.90;;;-0.15;89.66;95298.78;4976813;28;20129;-67
2021/12/03 00:57:43;;;;;;;20.20;12.52;;;1.70;81.90;;;-0.15;89.57;95306.53;4971811;28;20037;-67
2021/12/03 01:00:23;;;;;;;18.88;11.73;;;1.70;81.80;;;-0.13;89.73;95312.38;4973204;28;20035;-66
2021/12/03 01:02:50;;;;;;;16.38;10.93;;;1.80;81.40;;;-0.15;89.79;95314.28;4967385;28;20404;-67
2021/12/03 01:05:16;;;;;;;18.65;12.43;;;1.80;81.20;;;-0.17;89.65;95318.78;4969264;28;20046;-67
2021/12/03 01:07:41;;;;;;;21.55;11.88;;;1.80;81.30;;;-0.19;89.36;95320.69;5004135;28;20030;-67
2021/12/03 01:10:08;;;;;;;20.17;12.70;;;1.70;81.20;;;-0.20;89.19;95326.00;4968855;28;20229;-67
2021/12/03 01:12:35;;;;;;;22.70;13.05;;;1.80;81.20;;;-0.23;89.71;95332.25;4968780;28;20043;-66
2021/12/03 01:15:00;;;;;;;20.23;13.32;;;1.70;81.30;;;-0.26;89.64;95337.72;4981039;28;20062;-67
2021/12/03 01:17:26;;;;;;;19.70;12.75;;;1.70;81.10;;;-0.28;89.72;95349.97;4956177;28;20410;-67
2021/12/03 01:19:52;;;;;;;22.67;12.65;;;1.70;81.30;;;-0.29;89.78;95342.34;4972829;28;20038;-66
2021/12/03 01:22:18;;;;;;;22.98;14.07;;;1.70;81.50;;;-0.31;89.81;95365.75;4959082;28;20077;-67
2021/12/03 01:24:44;;;;;;;23.90;14.02;;;1.50;81.70;;;-0.33;89.81;95372.81;4969986;28;20038;-67
2021/12/03 01:27:09;;;;;;;23.40;12.52;;;1.60;82.20;;;-0.35;90.30;95387.66;4972279;28;20027;-67
2021/12/03 01:29:35;;;;;;;21.85;12.65;;;1.50;82.40;;;-0.33;90.01;95388.31;4985991;28;20045;-68
2021/12/03 01:32:01;;;;;;;23.13;13.50;;;1.60;82.40;;;-0.31;90.36;95378.66;4957243;28;20050;-67
2021/12/03 01:34:26;;;;;;;24.58;13.18;;;1.60;82.10;;;-0.29;90.21;95384.50;4959221;28;20035;-67
2021/12/03 01:36:52;;;;;;;21.92;13.10;;;1.70;82.20;;;-0.28;90.50;95401.63;4991782;28;20045;-67
2021/12/03 01:39:18;;;;;;;20.33;12.38;;;1.70;82.30;;;-0.26;90.38;95396.31;4959300;28;20038;-67
2021/12/03 01:41:44;;;;;;;21.00;12.30;;;1.60;82.20;;;-0.27;90.20;95397.28;4955770;28;20047;-67
2021/12/03 01:44:10;;;;;;;21.75;12.57;;;1.60;82.50;;;-0.26;90.56;95399.72;4955788;28;20093;-67
2021/12/03 01:46:36;;;;;;;18.27;12.25;;;1.60;82.70;;;-0.24;90.83;95402.16;4974796;28;20415;-67
2021/12/03 01:49:02;;;;;;;21.13;11.95;;;1.60;82.70;;;-0.24;90.84;95387.47;4973605;28;20035;-67
2021/12/03 01:51:28;;;;;;;19.23;11.93;;;1.70;82.70;;;-0.23;90.43;95388.28;4932859;28;20054;-67
2021/12/03 01:53:54;;;;;;;22.92;12.13;;;1.70;82.70;;;-0.22;90.96;95390.75;4988547;28;20463;-67
2021/12/03 01:56:20;;;;;;;22.95;13.95;;;1.70;82.60;;;-0.21;90.99;95387.22;4983731;28;20042;-67
2021/12/03 01:58:47;;;;;;;21.48;13.48;;;1.70;82.60;;;-0.18;91.32;95401.63;4960408;28;20045;-66
2021/12/03 02:01:15;;;;;;;18.77;12.48;;;1.80;82.50;;;-0.17;91.37;95395.50;4974867;28;20038;-66
2021/12/03 02:03:43;;;;;;;17.77;12.18;;;1.80;82.80;;;-0.15;91.15;95397.00;4988054;28;20035;-67
2021/12/03 02:06:09;;;;;;;19.10;12.25;;;1.80;82.90;;;-0.12;91.84;95391.53;4963249;28;20046;-67
2021/12/03 02:08:35;;;;;;;17.95;12.20;;;1.80;83.00;;;-0.13;91.71;95389.91;4974340;28;20039;-67
2021/12/03 02:11:02;;;;;;;19.20;12.70;;;1.80;83.00;;;-0.13;91.48;95405.41;4985003;28;20073;-66
2021/12/03 02:13:27;;;;;;;18.75;12.55;;;1.80;83.10;;;-0.11;91.87;95395.75;4972412;28;20082;-66
2021/12/03 02:15:53;;;;;;;18.88;12.07;;;1.80;83.00;;;-0.08;91.85;95392.88;4992703;28;20042;-67
2021/12/03 02:18:19;;;;;;;19.48;13.23;;;1.90;83.00;;;-0.09;91.40;95391.25;4969476;28;20065;-67
2021/12/03 02:20:49;;;;;;;19.40;12.38;;;1.90;82.90;;;-0.08;91.88;95392.88;4974796;28;20405;-67
2021/12/03 02:23:15;;;;;;;17.73;12.07;;;1.80;82.60;;;-0.07;91.23;95389.34;4983142;28;20034;-67
2021/12/03 02:25:42;;;;;;;16.52;11.70;;;1.90;82.60;;;-0.06;91.46;95390.97;4967891;28;20045;-67
2021/12/03 02:28:08;;;;;;;20.55;12.57;;;1.80;82.40;;;-0.06;91.65;95401.31;4974663;28;20109;-66
2021/12/03 02:30:33;;;;;;;17.30;12.30;;;1.90;82.50;;;-0.06;91.67;95406.47;4981892;28;20041;-67
2021/12/03 02:32:59;;;;;;;18.55;11.90;;;1.90;82.70;;;-0.03;91.66;95401.03;4970715;28;20409;-67
2021/12/03 02:35:25;;;;;;;17.67;12.32;;;1.90;82.30;;;-0.04;91.37;95401.97;4980919;28;20085;-67
2021/12/03 02:37:51;;;;;;;20.70;12.85;;;1.90;82.70;;;-0.03;91.26;95401.03;4943712;28;20133;-67
2021/12/03 02:40:17;;;;;;;17.77;11.85;;;2.00;82.50;;;-0.01;91.53;95404.28;4989639;28;20463;-67
2021/12/03 02:42:43;;;;;;;19.85;12.65;;;2.00;82.40;;;-0.01;91.31;95404.28;4974285;28;20042;-66
2021/12/03 02:45:09;;;;;;;18.23;12.18;;;1.90;82.30;;;-0.01;91.73;95409.44;4972594;28;20142;-66
2021/12/03 02:47:35;;;;;;;19.45;12.52;;;1.90;82.50;;;-0.01;91.00;95412.03;4969443;28;20038;-67
2021/12/03 02:50:02;;;;;;;18.80;12.77;;;1.80;82.30;;;-0.02;91.08;95418.16;4988537;28;20046;-66
2021/12/03 02:52:27;;;;;;;19.70;11.88;;;1.90;82.50;;;-0.02;91.71;95418.16;4974426;28;20039;-66
2021/12/03 02:54:53;;;;;;;17.80;12.00;;;1.90;82.60;;;0.00;91.66;95430.97;4977079;28;20070;-67
2021/12/03 02:57:19;;;;;;;20.08;12.73;;;2.00;82.80;;;-0.01;91.25;95437.88;4985982;28;20043;-67
2021/12/03 02:59:44;;;;;;;16.08;11.80;;;1.90;82.50;;;-0.02;91.54;95438.03;4976609;28;20038;-67
2021/12/03 03:02:10;;;;;;;17.75;11.85;;;1.80;82.50;;;-0.03;91.77;95437.22;4957112;28;20118;-67
2021/12/03 03:04:36;;;;;;;19.77;11.82;;;1.80;82.60;;;-0.04;91.58;95440.75;4939936;28;20035;-66
2021/12/03 03:07:02;;;;;;;16.80;11.13;;;1.80;82.60;;;-0.06;91.36;95441.84;4972862;28;20042;-67
2021/12/03 03:09:30;;;;;;;15.38;10.73;;;1.70;82.50;;;-0.06;91.74;95447.84;4958470;28;20038;-67
2021/12/03 03:11:56;;;;;;;16.30;11.10;;;1.70;82.30;;;-0.06;90.79;95447.03;4979658;28;20067;-67
2021/12/03 03:14:22;;;;;;;17.27;11.02;;;1.90;82.40;;;-0.05;91.27;95449.47;4960257;28;20033;-67
2021/12/03 03:16:48;;;;;;;17.45;11.57;;;1.90;81.80;;;-0.05;90.95;95453.81;4969945;28;20121;-67
2021/12/03 03:19:17;;;;;;;17.52;11.27;;;1.80;81.60;;;-0.09;90.82;95447.31;4980954;28;20069;-67
2021/12/03 03:21:44;;;;;;;22.45;14.43;;;1.80;82.00;;;-0.10;90.88;95446.50;4977555;28;20054;-67
2021/12/03 03:24:10;;;;;;;25.38;15.35;;;1.80;81.70;;;-0.10;90.76;95448.25;4977611;28;20118;-67
2021/12/03 03:26:40;;;;;;;17.27;11.85;;;1.80;81.70;;;-0.14;91.01;95452.91;4957095;28;20452;-67
2021/12/03 03:29:08;;;;;;;15.18;10.45;;;1.60;81.90;;;-0.14;90.38;95463.25;4973363;28;20047;-64
2021/12/03 03:31:35;;;;;;;16.77;11.02;;;1.70;82.20;;;-0.13;91.08;95462.28;4971555;28;20520;-66
2021/12/03 03:34:00;;;;;;;16.15;11.40;;;1.80;82.20;;;-0.13;91.18;95472.63;4989139;28;20030;-65
2021/12/03 03:36:26;;;;;;;16.27;10.73;;;1.80;82.40;;;-0.11;91.19;95475.88;4940050;28;20050;-66
2021/12/03 03:38:52;;;;;;;19.20;11.88;;;1.80;82.90;;;-0.11;91.88;95475.06;4983618;28;20510;-67
2021/12/03 03:41:18;;;;;;;20.35;12.00;;;1.70;83.50;;;-0.15;91.75;95479.69;4975863;28;20038;-66
2021/12/03 03:43:43;;;;;;;26.80;16.25;;;1.80;83.90;;;-0.17;91.79;95481.59;4956377;28;20077;-66
2021/12/03 03:46:09;;;;;;;28.67;18.35;;;1.70;84.00;;;-0.15;92.40;95484.88;4954740;28;20081;-67
2021/12/03 03:48:35;;;;;;;18.23;12.07;;;1.70;83.90;;;-0.16;92.70;95482.41;4969746;28;20067;-66
2021/12/03 03:51:01;;;;;;;19.40;12.60;;;1.60;85.10;;;-0.17;92.67;95491.94;4986595;28;20418;-66
2021/12/03 03:53:26;;;;;;;19.50;12.52;;;1.70;85.60;;;-0.19;92.59;95498.22;4958015;28;20062;-66
2021/12/03 03:55:52;;;;;;;17.27;11.95;;;1.60;85.20;;;-0.21;92.87;95484.63;4982239;28;20050;-66
2021/12/03 03:58:18;;;;;;;16.70;10.60;;;1.60;85.70;;;-0.23;93.19;95497.66;4988878;28;20065;-66
2021/12/03 04:00:44;;;;;;;16.60;11.30;;;1.50;85.10;;;-0.26;93.31;95495.34;4972958;28;20085;-66
2021/12/03 04:03:10;;;;;;;16.58;11.30;;;1.50;85.20;;;-0.26;93.39;95500.50;4962014;28;20414;-66
2021/12/03 04:05:36;;;;;;;19.70;11.98;;;1.50;84.80;;;-0.25;93.08;95502.13;4969427;28;20034;-65
2021/12/03 04:08:02;;;;;;;19.58;11.98;;;1.60;84.50;;;-0.24;92.87;95498.59;4980093;28;20030;-65
2021/12/03 04:10:28;;;;;;;19.92;11.65;;;1.70;84.40;;;-0.22;93.52;95501.88;4971575;28;20038;-66
2021/12/03 04:12:53;;;;;;;17.60;11.48;;;1.70;84.10;;;-0.22;92.89;95504.47;4984582;28;20045;-67
2021/12/03 04:15:19;;;;;;;16.92;11.48;;;1.70;83.80;;;-0.22;93.35;95509.63;4971679;28;20031;-66
2021/12/03 04:17:46;;;;;;;26.27;15.80;;;1.70;84.10;;;-0.23;93.44;95502.81;4956199;28;20524;-66
2021/12/03 04:20:13;;;;;;;19.52;11.70;;;1.70;83.90;;;-0.24;92.92;95511.53;4979132;28;20060;-65
2021/12/03 04:22:38;;;;;;;16.63;10.52;;;1.60;83.80;;;-0.25;93.13;95509.06;4986065;28;20100;-66
2021/12/03 04:25:06;;;;;;;16.63;10.60;;;1.60;83.90;;;-0.27;92.79;95510.97;4969491;28;20038;-66
2021/12/03 04:27:32;;;;;;;16.27;10.57;;;1.60;83.70;;;-0.27;92.97;95516.97;5002385;28;20053;-66
2021/12/03 04:29:58;;;;;;;18.00;10.55;;;1.60;83.70;;;-0.29;92.82;95511.13;4981211;28;20506;-67
2021/12/03 04:32:25;;;;;;;16.92;11.07;;;1.60;83.90;;;-0.29;92.62;95512.88;4977879;28;20434;-66
2021/12/03 04:34:52;;;;;;;15.63;9.90;;;1.50;84.20;;;-0.30;93.38;95506.91;4978891;28;20127;-70
2021/12/03 04:37:18;;;;;;;23.70;13.05;;;1.60;83.90;;;-0.31;93.19;95507.84;4969681;28;20034;-66
2021/12/03 04:39:44;;;;;;;21.50;14.48;;;1.50;84.20;;;-0.33;93.04;95513.16;4970447;28;20031;-71
2021/12/03 04:42:10;;;;;;;17.90;11.68;;;1.50;84.60;;;-0.33;93.08;95509.75;4967885;28;20039;-67
2021/12/03 04:44:37;;;;;;;18.35;12.68;;;1.50;84.20;;;-0.33;92.98;95517.53;4976885;28;20410;-68
2021/12/03 04:47:03;;;;;;;19.17;12.93;;;1.50;84.10;;;-0.32;92.82;95529.47;4973365;28;20137;-66
2021/12/03 04:49:29;;;;;;;17.60;11.20;;;1.60;83.60;;;-0.32;92.87;95539.81;4957966;28;20043;-67
2021/12/03 04:51:55;;;;;;;20.58;12.40;;;1.60;83.40;;;-0.30;92.93;95535.34;4987710;28;20157;-66
2021/12/03 04:54:21;;;;;;;18.77;13.40;;;1.70;83.00;;;-0.33;92.03;95543.34;4965121;28;20038;-67
2021/12/03 04:56:47;;;;;;;14.15;9.75;;;1.60;82.80;;;-0.35;92.34;95545.25;4977493;28;20094;-67
2021/12/03 04:59:12;;;;;;;12.77;8.77;;;1.60;82.20;;;-0.38;92.16;95548.13;4956007;28;20038;-66
2021/12/03 05:01:39;;;;;;;13.55;8.70;;;1.40;82.30;;;-0.40;92.22;95561.19;4991521;28;20038;-67
2021/12/03 05:04:05;;;;;;;13.85;8.93;;;1.40;82.20;;;-0.42;91.47;95557.91;4974537;28;20069;-65
2021/12/03 05:06:52;;;;;;;13.30;8.88;;;1.40;81.90;;;-0.43;91.80;95563.22;4975344;28;20469;-66
2021/12/03 05:09:17;;;;;;;12.90;9.18;;;1.40;82.10;;;-0.46;91.41;95560.88;4979688;28;20049;-66
2021/12/03 05:11:42;;;;;;;12.45;9.27;;;1.40;82.00;;;-0.48;91.45;95561.00;4980535;28;20114;-66
2021/12/03 05:14:08;;;;;;;12.90;9.23;;;1.40;82.10;;;-0.48;91.12;95571.34;4991695;28;20117;-66
2021/12/03 05:16:34;;;;;;;15.32;9.48;;;1.40;81.60;;;-0.48;91.57;95570.53;4958294;28;20125;-66
2021/12/03 05:19:00;;;;;;;28.40;19.33;;;1.40;81.60;;;-0.47;91.10;95569.56;4965916;28;20113;-66
2021/12/03 05:21:25;;;;;;;16.77;10.88;;;1.40;81.40;;;-0.48;90.62;95579.09;4995166;28;20540;-66
2021/12/03 05:23:51;;;;;;;14.75;9.10;;;1.40;81.30;;;-0.47;90.86;95579.91;4994375;28;20129;-66
2021/12/03 05:26:17;;;;;;;14.32;8.70;;;1.40;81.20;;;-0.48;90.25;95583.44;4957124;28;20058;-66
2021/12/03 05:28:42;;;;;;;11.82;8.55;;;1.40;80.90;;;-0.48;90.25;95580.88;4992874;28;20117;-66
2021/12/03 05:31:08;;;;;;;13.40;8.90;;;1.50;81.00;;;-0.47;90.61;95592.81;4973920;28;20137;-66
2021/12/03 05:33:34;;;;;;;12.95;8.40;;;1.40;81.20;;;-0.49;90.78;95595.56;4991052;28;20035;-66
2021/12/03 05:36:00;;;;;;;13.88;8.32;;;1.40;80.70;;;-0.50;90.41;95599.09;4959943;28;20146;-67
2021/12/03 05:38:25;;;;;;;13.23;9.05;;;1.40;81.10;;;-0.48;90.55;95607.50;4960371;28;20058;-67
2021/12/03 05:40:51;;;;;;;13.40;9.25;;;1.50;80.80;;;-0.49;90.18;95605.88;4990189;28;20042;-67
2021/12/03 05:43:17;;;;;;;15.43;9.77;;;1.50;81.10;;;-0.47;90.50;95614.31;4974413;28;20827;-69
2021/12/03 05:45:43;;;;;;;14.15;9.27;;;1.60;81.10;;;-0.45;90.46;95617.59;4958213;28;20437;-69
2021/12/03 05:48:09;;;;;;;12.30;8.82;;;1.60;81.30;;;-0.43;90.76;95622.63;4974771;28;20041;-69
2021/12/03 05:50:35;;;;;;;14.50;8.93;;;1.60;80.90;;;-0.43;90.78;95625.22;4989320;28;20472;-69
2021/12/03 05:53:00;;;;;;;12.55;8.77;;;1.60;81.20;;;-0.41;90.83;95633.66;4969385;28;20027;-70
2021/12/03 05:55:26;;;;;;;26.58;16.80;;;1.70;81.10;;;-0.40;90.45;95641.28;4971845;28;20035;-70
2021/12/03 05:57:52;;;;;;;12.57;9.55;;;1.60;80.70;;;-0.41;90.31;95646.56;4955288;28;20031;-67
2021/12/03 06:00:28;;;;;;;13.70;9.48;;;1.50;81.10;;;-0.41;90.87;95649.16;4968691;28;20454;-68
2021/12/03 06:02:54;;;;;;;13.90;9.07;;;1.60;81.30;;;-0.42;90.26;95644.94;4975421;28;20031;-69
2021/12/03 06:05:21;;;;;;;13.15;8.45;;;1.50;81.10;;;-0.44;90.28;95650.25;4958644;28;20181;-68
2021/12/03 06:07:47;;;;;;;12.95;9.10;;;1.50;81.00;;;-0.47;90.58;95655.66;4977454;28;20062;-65
2021/12/03 06:10:13;;;;;;;15.02;9.07;;;1.50;81.30;;;-0.51;90.27;95659.44;4986779;28;20117;-65
2021/12/03 06:12:39;;;;;;;14.65;10.15;;;1.30;81.40;;;-0.53;90.02;95663.94;4980159;28;20510;-64
2021/12/03 06:15:05;;;;;;;14.32;10.13;;;1.30;81.60;;;-0.58;90.57;95678.19;4975350;28;20510;-67
2021/12/03 06:17:31;;;;;;;20.35;14.25;;;1.20;81.90;;;-0.58;90.39;95678.19;4982423;28;20039;-64
2021/12/03 06:19:56;;;;;;;20.77;12.80;;;1.30;82.30;;;-0.57;90.51;95674.66;5004455;28;20061;-64
2021/12/03 06:22:22;;;;;;;13.80;9.95;;;1.40;81.90;;;-0.58;90.44;95663.50;4978522;28;20039;-64
2021/12/03 06:24:48;;;;;;;19.60;12.77;;;1.30;81.90;;;-0.60;90.62;95680.91;4932733;28;20674;-64
2021/12/03 06:27:14;;;;;;;17.00;11.48;;;1.30;81.80;;;-0.61;90.98;95679.28;4939763;28;20039;-66
2021/12/03 06:29:39;;;;;;;14.45;10.18;;;1.30;81.80;;;-0.59;90.54;95679.16;4986207;28;20030;-66
2021/12/03 06:32:09;;;;;;;14.02;9.85;;;1.40;81.80;;;-0.60;91.14;95690.44;4972257;28;20046;-67
2021/12/03 06:34:35;;;;;;;13.80;9.60;;;1.40;81.80;;;-0.58;90.83;95689.34;4974076;28;20066;-67
2021/12/03 06:37:01;;;;;;;15.07;10.60;;;1.40;81.70;;;-0.57;90.86;95690.97;4987595;28;20039;-66
2021/12/03 06:39:27;;;;;;;20.13;11.35;;;1.40;81.40;;;-0.54;90.36;95693.28;4973713;28;20038;-67
2021/12/03 06:41:52;;;;;;;18.67;11.80;;;1.50;81.10;;;-0.52;90.83;95699.16;4972330;28;20062;-67
2021/12/03 06:44:18;;;;;;;19.77;12.55;;;1.50;81.30;;;-0.51;90.50;95694.78;4957171;28;20149;-67
2021/12/03 06:46:44;;;;;;;18.20;12.00;;;1.50;81.30;;;-0.48;90.40;95699.69;4954548;28;20042;-66
2021/12/03 06:49:09;;;;;;;17.50;10.90;;;1.60;81.00;;;-0.47;90.84;95702.16;4967316;28;20049;-65
2021/12/03 06:51:42;;;;;;;18.33;11.48;;;1.60;81.00;;;-0.44;90.61;95706.25;4988294;28;20113;-64
2021/12/03 06:54:09;;;;;;;16.58;11.25;;;1.50;80.50;;;-0.46;90.53;95716.69;4956911;28;20069;-67
2021/12/03 06:56:47;;;;;;;20.77;12.57;;;1.60;80.70;;;-0.44;89.85;95721.75;4954254;28;20038;-64
2021/12/03 06:59:15;;;;;;;15.90;11.05;;;1.50;80.70;;;-0.46;90.04;95719.28;4970927;28;20062;-64
2021/12/03 07:01:40;;;;;;;15.23;9.63;;;1.50;81.00;;;-0.42;90.46;95727.63;4949639;28;20034;-65
2021/12/03 07:04:06;;;;;;;14.32;9.43;;;1.60;80.80;;;-0.42;90.07;95725.84;4974303;28;20047;-66
2021/12/03 07:06:32;;;;;;;14.18;9.93;;;1.60;80.70;;;-0.38;90.17;95739.31;4983952;28;20038;-66
2021/12/03 07:08:57;;;;;;;14.82;10.23;;;1.70;80.70;;;-0.38;89.86;95734.16;4977089;28;20089;-65
2021/12/03 07:11:23;;;;;;;15.30;9.32;;;1.70;80.20;;;-0.36;89.80;95734.84;4988288;28;20093;-67
2021/12/03 07:13:49;;;;;;;14.63;9.25;;;1.70;80.20;;;-0.34;89.90;95743.28;4988054;28;20068;-67
2021/12/03 07:16:15;;;;;;;15.23;9.88;;;1.70;80.20;;;-0.32;90.17;95743.97;4971145;28;20479;-68
2021/12/03 07:18:43;;;;;;;14.27;8.82;;;1.70;79.80;;;-0.33;89.66;95740.56;4985214;28;20042;-67
2021/12/03 07:21:09;;;;;;;13.30;9.27;;;1.70;79.80;;;-0.33;89.43;95742.31;4976838;28;20084;-66
2021/12/03 07:23:35;;;;;;;15.88;9.40;;;1.60;79.40;;;-0.33;89.04;95750.06;4988961;28;20038;-66
2021/12/03 07:26:02;;;;;;;14.15;9.15;;;1.60;79.50;;;-0.32;89.34;95756.88;4987248;28;20050;-66
2021/12/03 07:28:28;;;;;;;15.18;9.48;;;1.70;79.60;;;-0.31;89.01;95759.34;4972521;28;20422;-65
2021/12/03 07:30:54;;;;;;;11.60;8.80;;;1.60;79.10;;;-0.32;89.17;95762.03;4969109;28;20034;-66
2021/12/03 07:33:20;;;;;;;13.85;10.23;;;1.60;79.50;;;-0.34;89.00;95763.94;4999031;28;20038;-66
2021/12/03 07:35:46;;;;;;;14.27;8.88;;;1.60;79.50;;;-0.32;89.34;95772.38;4971493;28;20050;-65
2021/12/03 07:38:15;;;;;;;16.05;9.57;;;1.50;79.50;;;-0.31;88.63;95776.59;4972751;28;20053;-65
2021/12/03 07:40:42;;;;;;;12.88;9.27;;;1.70;79.40;;;-0.28;88.54;95776.34;4969151;28;20081;-65
2021/12/03 07:43:08;;;;;;;15.77;9.88;;;1.70;79.10;;;-0.27;88.87;95770.22;4968072;28;20045;-65
2021/12/03 07:45:34;;;;;;;12.05;9.15;;;1.70;78.90;;;-0.25;88.42;95775.25;4985487;28;20041;-66
2021/12/03 07:48:00;;;;;;;11.85;8.75;;;1.80;78.70;;;-0.24;88.04;95782.88;4953082;28;20398;-68
2021/12/03 07:50:25;;;;;;;13.27;9.05;;;1.80;78.40;;;-0.23;88.30;95779.34;4953631;28;20587;-66
2021/12/03 07:52:51;;;;;;;13.95;9.10;;;1.80;78.50;;;-0.20;88.27;95786.03;4960305;28;20035;-67
2021/12/03 07:55:17;;;;;;;14.40;9.23;;;1.90;78.20;;;-0.18;88.13;95790.13;4987590;28;20074;-67
2021/12/03 07:57:43;;;;;;;13.30;9.45;;;2.00;78.40;;;-0.16;87.99;95788.22;4978420;28;20027;-67
2021/12/03 08:00:09;;;;;;;16.75;9.90;;;2.00;77.90;;;-0.14;88.44;95788.91;4965227;28;20122;-65
2021/12/03 08:02:35;;;;;;;14.18;9.07;;;2.00;78.10;;;-0.10;87.75;95792.88;4987312;28;20041;-66
2021/12/03 08:05:00;;;;;;;13.40;9.10;;;2.10;77.80;;;-0.05;88.55;95797.63;4971059;28;20035;-66
2021/12/03 08:07:27;;;;;;;12.90;8.57;;;2.20;77.40;;;-0.05;88.24;95801.03;4988128;28;20114;-67
2021/12/03 08:09:52;;;;;;;12.68;8.57;;;2.20;77.10;;;-0.02;88.05;95808.53;4971612;28;20038;-66
2021/12/03 08:12:18;;;;;;;13.68;9.05;;;2.20;76.70;;;-0.01;87.76;95807.59;4967237;28;20030;-66
2021/12/03 08:14:44;;;;;;;13.55;9.05;;;2.20;77.30;;;0.01;87.94;95798.91;5002267;28;20478;-67
2021/12/03 08:17:10;;;;;;;12.77;9.05;;;2.30;77.10;;;0.02;87.63;95806.53;4982941;28;20125;-65
2021/12/03 08:19:35;;;;;;;14.63;9.38;;;2.40;76.90;;;0.04;87.83;95804.63;4991861;28;20512;-65
2021/12/03 08:22:01;;;;;;;13.93;9.48;;;2.40;76.50;;;0.06;88.09;95814.84;4970477;28;20035;-66
2021/12/03 08:24:27;;;;;;;21.05;10.70;;;2.40;76.70;;;0.06;87.95;95817.41;4987424;28;20034;-65
2021/12/03 08:26:53;;;;;;;14.27;9.85;;;2.30;76.90;;;0.07;87.48;95819.88;4987257;28;20116;-65
2021/12/03 08:29:19;;;;;;;13.52;8.93;;;2.40;76.60;;;0.06;87.59;95812.25;4985839;28;20042;-72
2021/12/03 08:31:45;;;;;;;12.68;9.75;;;2.30;76.40;;;0.03;87.58;95813.34;4976886;28;20116;-70
2021/12/03 08:34:11;;;;;;;14.05;10.40;;;2.30;76.40;;;0.06;88.01;95823.41;4957766;28;20041;-65
2021/12/03 08:36:37;;;;;;;14.70;9.45;;;2.40;76.50;;;0.08;87.73;95828.44;4986929;28;20047;-65
2021/12/03 08:39:03;;;;;;;13.70;9.25;;;2.50;76.40;;;0.12;87.15;95822.06;4972704;28;20039;-65
2021/12/03 08:41:29;;;;;;;14.25;9.00;;;2.60;75.90;;;0.15;87.42;95819.22;4984326;28;20391;-68
2021/12/03 08:43:55;;;;;;;13.43;9.68;;;2.60;75.70;;;0.21;87.72;95826.44;4955659;28;20086;-67
2021/12/03 08:46:28;;;;;;;14.63;10.02;;;2.60;75.40;;;0.25;87.35;95825.25;4961036;28;20038;-66
2021/12/03 08:49:01;;;;;;;13.57;9.60;;;2.70;75.20;;;0.27;86.71;95825.94;4993044;28;20042;-67
2021/12/03 08:51:33;;;;;;;14.02;10.20;;;2.80;74.50;;;0.26;86.90;95824.28;4988021;28;20518;-65
2021/12/03 08:56:43;;;;;;;15.75;10.13;;;2.70;75.10;;;0.27;86.18;95826.75;4990430;28;20042;-66
2021/12/03 08:59:09;;;;;;;13.18;9.80;;;2.70;75.20;;;0.28;86.87;95830.97;4957484;28;20121;-67
2021/12/03 09:01:34;;;;;;;13.55;10.32;;;2.70;75.30;;;0.27;86.34;95837.09;4975260;28;20050;-68
2021/12/03 09:04:00;;;;;;;15.20;9.75;;;2.60;75.30;;;0.25;86.18;95836.41;4991153;28;20127;-68
2021/12/03 09:06:27;;;;;;;14.98;10.20;;;2.50;75.10;;;0.25;86.26;95838.19;4975629;28;20026;-67
2021/12/03 09:08:53;;;;;;;14.77;10.02;;;2.60;75.50;;;0.25;86.74;95833.81;4975210;28;20049;-69
2021/12/03 09:11:18;;;;;;;13.55;10.10;;;2.60;75.40;;;0.22;86.21;95830.66;4989750;28;20079;-66
2021/12/03 09:13:46;;;;;;;11.88;9.07;;;2.60;75.80;;;0.26;86.36;95844.97;4986335;28;20034;-67
2021/12/03 09:16:16;;;;;;;12.73;8.90;;;2.70;75.50;;;0.33;86.74;95843.50;4973324;28;20038;-66
2021/12/03 09:18:44;;;;;;;13.80;9.80;;;2.90;74.80;;;0.43;86.40;95841.75;4958030;28;20026;-67
2021/12/03 09:24:02;;;;;;;13.02;9.52;;;3.30;73.10;;;0.68;86.31;95849.94;4990809;28;20031;-67
2021/12/03 09:26:29;;;;;;;11.60;9.10;;;3.80;72.60;;;0.86;86.06;95854.34;4989894;28;20114;-67
2021/12/03 09:29:11;;;;;;;13.68;9.30;;;4.00;70.20;;;1.00;85.75;95860.91;4954060;28;20031;-67
2021/12/03 09:31:40;;;;;;;14.85;8.82;;;4.30;69.70;;;1.23;85.93;95851.06;4976795;28;20117;-67
2021/12/03 09:34:09;;;;;;;11.23;8.02;;;4.70;68.70;;;1.47;85.48;95855.81;4973254;28;20106;-68
2021/12/03 09:36:39;;;;;;;9.52;7.90;;;5.30;66.80;;;1.66;84.69;95848.00;4956083;28;20545;-71
2021/12/03 09:39:05;;;;;;;10.35;8.15;;;5.60;65.60;;;1.86;84.27;95845.38;4957730;28;20121;-68
2021/12/03 09:41:31;;;;;;;10.27;8.32;;;5.70;63.60;;;2.00;83.91;95852.69;4988953;28;20124;-67
2021/12/03 09:43:57;;;;;;;10.48;8.45;;;5.40;63.90;;;2.08;83.48;95842.41;4938369;28;20038;-66
2021/12/03 09:46:24;;;;;;;12.35;7.75;;;5.30;65.10;;;2.23;82.90;95845.34;4957658;28;20045;-65
2021/12/03 09:51:22;;;;;;;;;;;5.90;62.60;;;2.45;78.71;95848.38;4956631;28;20459;-65
2021/12/03 09:56:51;;;;;;;8.20;7.10;;;9.30;54.40;;;3.04;82.59;95841.03;4977811;28;20061;-66
2021/12/03 10:04:48;;;;;;;9.23;7.47;;;15.10;37.40;;;4.40;81.40;95837.84;4972382;28;20113;-66
2021/12/03 10:15:22;;;;;;;7.53;6.30;;;14.40;36.40;;;5.73;72.13;95814.19;4986860;28;20042;-67
2021/12/03 10:18:08;;;;;;;6.60;5.85;;;15.50;34.00;;;5.95;71.14;95810.91;4990424;28;20034;-67
2021/12/03 10:20:42;;;;;;;7.82;5.72;;;16.50;33.00;;;6.31;73.47;95815.69;4987219;28;20035;-68
2021/12/03 10:42:01;;;;;;;;;;;16.10;30.80;;;7.70;58.67;95777.16;4972829;28;20030;-66
2021/12/03 10:47:26;;;;;;;6.90;4.93;;;15.40;32.50;;;7.53;64.76;95771.25;4988421;28;20117;-66
2021/12/03 10:58:40;;;;;;;5.70;4.57;;;14.30;33.60;;;7.28;59.92;95760.22;4956860;28;20044;-70
2021/12/03 11:01:55;;;;;;;6.28;4.65;;;14.70;33.30;;;7.31;57.68;95765.06;4988844;28;20136;-67
2021/12/03 11:04:42;;;;;;;5.75;4.93;;;14.70;33.20;;;7.31;61.14;95770.31;4973228;28;20568;-70
2021/12/03 11:07:36;;;;;;;6.07;4.47;;;14.30;33.60;;;7.24;60.86;95756.31;4983269;28;20777;-70
2021/12/03 11:13:21;;;;;;;5.20;4.30;;;14.10;33.30;;;7.41;58.12;95758.78;4975601;28;20096;-67
2021/12/03 12:04:31;;;;;;;5.95;3.08;;;17.50;27.00;;;9.09;53.98;95755.28;4973497;28;20061;-64